Time;durP1;ratioP1;P1;durP2;ratioP2;P2;SDS_P1;SDS_P2;PMS_P1;PMS_P2;Temp;Humidity;BMP_temperature;BMP_pressure;BME280_temperature;BME280_humidity;BME280_pressure;Samples;Min_cycle;Max_cycle;Signal;HPM_P1;HPM_P2
2022/01/07 00:02:10;;;;;;;7.32;2.40;;;1.80;90.30;;;;;;4845867;29;20302;-67
2022/01/07 00:04:36;;;;;;;8.55;2.95;;;1.80;90.30;;;;;;4845841;29;20064;-67
2022/01/07 00:07:03;;;;;;;9.05;2.63;;;1.70;90.40;;;;;;4845163;29;20042;-67
2022/01/07 00:09:29;;;;;;;8.50;2.42;;;1.70;90.60;;;;;;4845333;29;20033;-67
2022/01/07 00:11:55;;;;;;;6.82;2.30;;;1.70;90.50;;;;;;4850458;29;20045;-67
2022/01/07 00:14:21;;;;;;;8.27;2.60;;;1.70;90.60;;;;;;4858580;29;20061;-67
2022/01/07 00:16:47;;;;;;;7.95;2.70;;;1.60;90.70;;;;;;4845416;29;20859;-67
2022/01/07 00:19:14;;;;;;;7.80;2.33;;;1.70;90.80;;;;;;4860946;29;20799;-67
2022/01/07 00:21:40;;;;;;;12.63;2.63;;;1.70;90.80;;;;;;4846053;29;20044;-67
2022/01/07 00:24:06;;;;;;;6.85;2.28;;;1.60;90.90;;;;;;4845481;29;20060;-67
2022/01/07 00:26:32;;;;;;;15.65;3.30;;;1.70;90.90;;;;;;4848176;29;20408;-67
2022/01/07 00:28:57;;;;;;;8.00;2.58;;;1.70;90.80;;;;;;4847222;29;20136;-67
2022/01/07 00:31:23;;;;;;;4.80;1.95;;;1.70;90.70;;;;;;4848796;29;20033;-67
2022/01/07 00:33:49;;;;;;;7.78;2.58;;;1.60;90.80;;;;;;4845127;29;20086;-67
2022/01/07 00:36:14;;;;;;;10.45;2.70;;;1.60;91.20;;;;;;4844198;29;20074;-66
2022/01/07 00:38:40;;;;;;;3.40;1.88;;;1.60;91.20;;;;;;4864866;29;20437;-67
2022/01/07 00:41:06;;;;;;;7.65;2.70;;;1.50;91.20;;;;;;4847307;29;20029;-67
2022/01/07 00:43:32;;;;;;;7.68;2.38;;;1.60;91.00;;;;;;4845830;29;20048;-67
2022/01/07 00:45:58;;;;;;;8.98;2.47;;;1.60;91.00;;;;;;4846234;29;20042;-68
2022/01/07 00:48:23;;;;;;;8.05;3.05;;;1.60;91.10;;;;;;4850176;29;20052;-67
2022/01/07 00:50:49;;;;;;;5.30;2.40;;;1.60;91.10;;;;;;4849928;29;20033;-67
2022/01/07 00:53:15;;;;;;;10.75;2.72;;;1.60;91.00;;;;;;4848630;29;20498;-68
2022/01/07 00:55:41;;;;;;;10.82;2.38;;;1.70;91.20;;;;;;4848927;29;20557;-68
2022/01/07 00:58:07;;;;;;;6.38;2.25;;;1.70;91.00;;;;;;4849852;29;20041;-68
2022/01/07 01:00:33;;;;;;;12.65;2.83;;;1.60;91.00;;;;;;4861267;29;20409;-68
2022/01/07 01:02:59;;;;;;;8.38;2.50;;;1.60;91.00;;;;;;4844472;29;20049;-68
2022/01/07 01:05:25;;;;;;;9.88;2.65;;;1.60;90.90;;;;;;4845401;29;20121;-67
2022/01/07 01:07:51;;;;;;;18.00;2.95;;;1.60;90.80;;;;;;4848610;29;20038;-67
2022/01/07 01:10:20;;;;;;;12.27;2.45;;;1.60;91.20;;;;;;4844877;29;20545;-67
2022/01/07 01:12:46;;;;;;;11.90;3.28;;;1.50;91.40;;;;;;4847626;29;20041;-67
2022/01/07 01:15:16;;;;;;;9.38;3.15;;;1.60;91.50;;;;;;4845660;29;20363;-67
2022/01/07 01:17:42;;;;;;;10.35;3.10;;;1.60;91.10;;;;;;4844862;29;20037;-66
2022/01/07 01:20:10;;;;;;;8.63;2.67;;;1.60;91.30;;;;;;4845585;29;20745;-67
2022/01/07 01:22:36;;;;;;;16.30;3.25;;;1.60;91.50;;;;;;4866296;29;20041;-67
2022/01/07 01:25:04;;;;;;;12.15;3.60;;;1.70;91.30;;;;;;4846770;29;20029;-67
2022/01/07 01:27:29;;;;;;;10.82;3.35;;;1.70;91.30;;;;;;4848689;29;20049;-67
2022/01/07 01:29:55;;;;;;;10.43;3.55;;;1.70;91.20;;;;;;4848022;29;20052;-67
2022/01/07 01:32:21;;;;;;;18.75;3.72;;;1.70;91.40;;;;;;4861475;29;20045;-67
2022/01/07 01:34:46;;;;;;;13.68;3.63;;;1.70;91.20;;;;;;4847868;29;20033;-67
2022/01/07 01:37:12;;;;;;;14.25;3.47;;;1.80;91.10;;;;;;4865490;29;20069;-67
2022/01/07 01:39:38;;;;;;;10.63;3.67;;;1.70;91.20;;;;;;4847225;29;20493;-67
2022/01/07 01:42:04;;;;;;;6.53;2.70;;;1.70;91.20;;;;;;4846893;29;20068;-67
2022/01/07 01:44:30;;;;;;;9.32;3.53;;;1.60;91.00;;;;;;4848000;29;20048;-67
2022/01/07 01:46:56;;;;;;;16.35;4.47;;;1.70;91.30;;;;;;4848577;29;20041;-67
2022/01/07 01:49:22;;;;;;;12.73;3.35;;;1.70;91.40;;;;;;4850893;29;20055;-67
2022/01/07 01:51:48;;;;;;;10.23;3.22;;;1.60;91.30;;;;;;4851525;29;20041;-67
2022/01/07 01:54:14;;;;;;;10.40;3.10;;;1.60;91.40;;;;;;4863981;29;20052;-68
2022/01/07 01:56:41;;;;;;;17.20;3.55;;;1.60;91.40;;;;;;4850156;29;20094;-67
2022/01/07 01:59:07;;;;;;;7.72;2.65;;;1.60;91.40;;;;;;4850922;29;20053;-67
2022/01/07 02:01:34;;;;;;;7.53;3.05;;;1.60;91.30;;;;;;4849830;29;20196;-67
2022/01/07 02:04:00;;;;;;;10.13;3.13;;;1.70;91.10;;;;;;4853353;29;20037;-67
2022/01/07 02:06:26;;;;;;;10.38;2.92;;;1.70;91.00;;;;;;4852099;29;20040;-67
2022/01/07 02:08:52;;;;;;;8.50;2.83;;;1.70;91.10;;;;;;4867522;29;20223;-67
2022/01/07 02:11:18;;;;;;;11.05;2.85;;;1.60;90.90;;;;;;4849419;29;20082;-67
2022/01/07 02:13:47;;;;;;;9.35;2.40;;;1.70;91.00;;;;;;4850939;29;20033;-67
2022/01/07 02:16:16;;;;;;;7.72;2.63;;;1.70;91.00;;;;;;4847086;29;20045;-67
2022/01/07 02:18:43;;;;;;;10.48;3.22;;;1.70;90.70;;;;;;4869331;29;20088;-67
2022/01/07 02:21:09;;;;;;;11.25;3.38;;;1.70;90.90;;;;;;4849556;29;20042;-67
2022/01/07 02:23:36;;;;;;;9.52;3.47;;;1.70;91.00;;;;;;4850931;29;20037;-67
2022/01/07 02:26:02;;;;;;;9.75;2.80;;;1.70;91.10;;;;;;4849259;29;20040;-67
2022/01/07 02:28:29;;;;;;;14.20;3.20;;;1.70;90.90;;;;;;4863619;29;20133;-67
2022/01/07 02:30:55;;;;;;;9.50;2.80;;;1.70;90.70;;;;;;4847431;29;20060;-67
2022/01/07 02:33:20;;;;;;;9.43;3.10;;;1.70;90.60;;;;;;4868562;29;20045;-67
2022/01/07 02:35:46;;;;;;;8.15;2.80;;;1.80;90.30;;;;;;4848668;29;20029;-67
2022/01/07 02:38:16;;;;;;;10.93;3.78;;;1.70;90.50;;;;;;4850566;29;20688;-67
2022/01/07 02:40:42;;;;;;;5.72;2.92;;;1.70;90.60;;;;;;4848198;29;20022;-68
2022/01/07 02:43:08;;;;;;;12.18;3.50;;;1.70;90.70;;;;;;4848381;29;20046;-67
2022/01/07 02:45:35;;;;;;;9.18;3.20;;;1.70;90.60;;;;;;4849449;29;20117;-67
2022/01/07 02:48:03;;;;;;;10.77;3.10;;;1.80;90.50;;;;;;4851846;29;20073;-67
2022/01/07 02:50:35;;;;;;;7.20;2.78;;;1.70;90.50;;;;;;4848474;29;20991;-68
2022/01/07 02:53:07;;;;;;;6.75;2.90;;;1.70;90.50;;;;;;4848985;29;20044;-67
2022/01/07 02:55:34;;;;;;;9.38;2.75;;;1.80;90.50;;;;;;4849731;29;20538;-67
2022/01/07 02:58:00;;;;;;;11.13;2.55;;;1.70;90.40;;;;;;4850971;29;20073;-67
2022/01/07 03:00:27;;;;;;;9.70;3.33;;;1.60;90.80;;;;;;4867502;29;20812;-67
2022/01/07 03:02:55;;;;;;;11.13;3.28;;;1.60;90.80;;;;;;4851480;29;20032;-67
2022/01/07 03:05:21;;;;;;;12.35;3.47;;;1.60;90.90;;;;;;4848894;29;20124;-67
2022/01/07 03:07:47;;;;;;;8.00;3.17;;;1.60;90.80;;;;;;4849469;29;20056;-67
2022/01/07 03:10:18;;;;;;;8.30;3.35;;;1.60;90.90;;;;;;4848716;29;20288;-67
2022/01/07 03:12:44;;;;;;;5.93;2.75;;;1.60;90.90;;;;;;4864459;29;20034;-67
2022/01/07 03:15:11;;;;;;;9.63;3.40;;;1.60;91.00;;;;;;4861718;29;20049;-67
2022/01/07 03:17:40;;;;;;;12.32;3.30;;;1.60;90.80;;;;;;4847836;29;20013;-67
2022/01/07 03:20:12;;;;;;;9.60;3.28;;;1.60;90.90;;;;;;4849678;29;20049;-67
2022/01/07 03:22:39;;;;;;;12.57;3.08;;;1.60;90.80;;;;;;4846905;29;20025;-67
2022/01/07 03:25:05;;;;;;;9.43;3.25;;;1.60;90.70;;;;;;4848717;29;20828;-67
2022/01/07 03:27:31;;;;;;;6.28;3.47;;;1.60;90.90;;;;;;4848405;29;20045;-67
2022/01/07 03:29:57;;;;;;;9.23;3.22;;;1.60;90.90;;;;;;4866607;29;20068;-67
2022/01/07 03:32:24;;;;;;;7.95;3.28;;;1.60;90.90;;;;;;4848359;29;20179;-67
2022/01/07 03:34:51;;;;;;;7.40;3.15;;;1.60;91.00;;;;;;4848441;29;20109;-67
2022/01/07 03:37:16;;;;;;;11.10;3.15;;;1.60;91.00;;;;;;4846725;29;20044;-67
2022/01/07 03:39:43;;;;;;;8.57;2.80;;;1.60;90.90;;;;;;4848034;29;20816;-67
2022/01/07 03:42:09;;;;;;;11.60;2.92;;;1.70;90.90;;;;;;4847453;29;20065;-67
2022/01/07 03:44:35;;;;;;;7.93;2.97;;;1.70;90.70;;;;;;4850528;29;20128;-67
2022/01/07 03:47:01;;;;;;;9.98;3.53;;;1.70;90.60;;;;;;4847719;29;20040;-67
2022/01/07 03:49:27;;;;;;;9.63;3.13;;;1.80;90.80;;;;;;4847491;29;20040;-67
2022/01/07 03:51:52;;;;;;;11.00;3.30;;;1.80;90.50;;;;;;4848132;29;20081;-67
2022/01/07 03:54:18;;;;;;;11.38;3.40;;;1.70;90.60;;;;;;4861956;29;20140;-67
2022/01/07 03:56:44;;;;;;;10.30;2.90;;;1.70;91.00;;;;;;4847033;29;20030;-67
2022/01/07 03:59:09;;;;;;;9.40;3.75;;;1.80;90.80;;;;;;4849511;29;20030;-67
2022/01/07 04:01:35;;;;;;;7.30;3.67;;;1.80;90.70;;;;;;4847901;29;20148;-67
2022/01/07 04:04:01;;;;;;;8.02;2.85;;;1.80;90.40;;;;;;4847617;29;20033;-67
2022/01/07 04:06:26;;;;;;;11.48;3.67;;;1.80;90.60;;;;;;4846795;29;20041;-67
2022/01/07 04:08:52;;;;;;;12.80;3.78;;;1.90;90.60;;;;;;4862819;29;20128;-67
2022/01/07 04:11:18;;;;;;;10.18;3.55;;;1.90;90.70;;;;;;4847330;29;20047;-67
2022/01/07 04:13:47;;;;;;;8.27;2.60;;;1.80;90.70;;;;;;4848784;29;20800;-67
2022/01/07 04:16:12;;;;;;;13.93;3.30;;;1.80;90.90;;;;;;4846176;29;20207;-67
2022/01/07 04:18:38;;;;;;;6.82;3.75;;;1.80;90.80;;;;;;4846737;29;20851;-67
2022/01/07 04:21:04;;;;;;;11.00;3.20;;;1.90;90.70;;;;;;4861305;29;20080;-67
2022/01/07 04:23:30;;;;;;;8.43;3.90;;;2.00;90.50;;;;;;4864449;29;20037;-67
2022/01/07 04:25:56;;;;;;;10.65;3.42;;;2.00;90.50;;;;;;4847496;29;20041;-67
2022/01/07 04:28:22;;;;;;;8.95;3.40;;;2.00;90.60;;;;;;4848855;29;20049;-67
2022/01/07 04:31:14;;;;;;;10.50;3.85;;;2.00;90.60;;;;;;4847079;29;20029;-68
2022/01/07 04:33:39;;;;;;;11.45;3.63;;;2.10;90.40;;;;;;4847337;29;20041;-67
2022/01/07 04:36:05;;;;;;;11.43;3.83;;;2.00;90.20;;;;;;4847748;29;20093;-67
2022/01/07 04:38:32;;;;;;;10.50;3.35;;;2.00;90.30;;;;;;4847534;29;20140;-67
2022/01/07 04:40:57;;;;;;;9.43;3.90;;;2.00;90.30;;;;;;4847380;29;20034;-67
2022/01/07 04:43:23;;;;;;;11.30;4.25;;;2.00;90.20;;;;;;4847535;29;20045;-67
2022/01/07 04:45:49;;;;;;;13.80;3.67;;;2.00;90.20;;;;;;4846791;29;20030;-67
2022/01/07 04:48:15;;;;;;;9.75;4.22;;;1.90;90.30;;;;;;4848041;29;20522;-67
2022/01/07 04:50:41;;;;;;;10.90;4.20;;;1.90;90.50;;;;;;4847799;29;20120;-67
2022/01/07 04:53:07;;;;;;;14.18;5.13;;;1.90;90.40;;;;;;4847933;29;20037;-67
2022/01/07 04:55:37;;;;;;;10.82;5.00;;;2.00;90.50;;;;;;4848074;29;20037;-67
2022/01/07 04:58:05;;;;;;;12.25;4.55;;;2.00;90.30;;;;;;4848474;29;20053;-68
2022/01/07 05:00:31;;;;;;;12.82;4.57;;;2.00;90.40;;;;;;4848444;29;20033;-67
2022/01/07 05:02:57;;;;;;;10.07;4.50;;;2.00;90.10;;;;;;4849780;29;20040;-66
2022/01/07 05:05:23;;;;;;;10.10;4.47;;;2.10;90.10;;;;;;4852023;29;20041;-67
2022/01/07 05:07:48;;;;;;;10.80;4.95;;;2.10;89.80;;;;;;4848294;29;20129;-66
2022/01/07 05:10:15;;;;;;;17.60;4.32;;;2.10;89.80;;;;;;4849092;29;20125;-68
2022/01/07 05:12:42;;;;;;;13.25;4.32;;;2.10;89.90;;;;;;4849708;29;20051;-67
2022/01/07 05:15:09;;;;;;;10.27;4.38;;;2.10;89.80;;;;;;4861248;29;20037;-67
2022/01/07 05:17:35;;;;;;;10.05;4.32;;;2.20;89.60;;;;;;4847034;29;20375;-67
2022/01/07 05:20:02;;;;;;;14.32;4.45;;;2.20;89.30;;;;;;4847100;29;20872;-67
2022/01/07 05:22:28;;;;;;;13.93;4.53;;;2.10;89.60;;;;;;4846409;29;20144;-68
2022/01/07 05:24:54;;;;;;;10.32;4.25;;;2.10;90.00;;;;;;4847092;29;20140;-67
2022/01/07 05:27:20;;;;;;;14.68;4.55;;;2.00;90.00;;;;;;4863354;29;20048;-67
2022/01/07 05:29:46;;;;;;;11.32;3.92;;;2.10;90.00;;;;;;4846447;29;20025;-67
2022/01/07 05:32:12;;;;;;;7.55;4.25;;;2.10;89.50;;;;;;4842835;29;20037;-67
2022/01/07 05:34:37;;;;;;;13.65;4.93;;;2.10;89.80;;;;;;4846439;29;20123;-67
2022/01/07 05:37:03;;;;;;;10.35;3.80;;;2.20;89.60;;;;;;4845390;29;20033;-67
2022/01/07 05:39:29;;;;;;;10.65;3.67;;;2.30;89.30;;;;;;4849292;29;20459;-67
2022/01/07 05:41:55;;;;;;;7.65;3.80;;;2.20;88.70;;;;;;4846237;29;20045;-67
2022/01/07 05:44:21;;;;;;;12.25;3.95;;;2.20;89.10;;;;;;4846021;29;20129;-67
2022/01/07 05:46:47;;;;;;;13.32;3.88;;;2.30;88.80;;;;;;4863969;29;20655;-68
2022/01/07 05:49:13;;;;;;;10.13;4.18;;;2.30;88.30;;;;;;4846846;29;20033;-68
2022/01/07 05:51:41;;;;;;;11.25;3.92;;;2.30;88.30;;;;;;4845013;29;20525;-67
2022/01/07 05:54:07;;;;;;;9.57;3.65;;;2.30;88.20;;;;;;4860609;29;20174;-67
2022/01/07 05:56:33;;;;;;;10.27;3.08;;;2.40;88.10;;;;;;4846413;29;20534;-67
2022/01/07 05:58:59;;;;;;;10.63;3.05;;;2.30;87.80;;;;;;4843873;29;20046;-67
2022/01/07 06:01:24;;;;;;;10.10;3.60;;;2.40;87.80;;;;;;4844892;29;20025;-67
2022/01/07 06:03:50;;;;;;;5.93;3.33;;;2.40;87.70;;;;;;4860187;29;20526;-67
2022/01/07 06:06:16;;;;;;;10.32;3.35;;;2.40;88.00;;;;;;4846926;29;20519;-67
2022/01/07 06:08:41;;;;;;;8.32;3.75;;;2.40;88.00;;;;;;4845965;29;20481;-68
2022/01/07 06:11:07;;;;;;;9.65;3.65;;;2.40;87.40;;;;;;4845155;29;20090;-67
2022/01/07 06:13:33;;;;;;;11.88;3.70;;;2.40;87.70;;;;;;4843981;29;20090;-67
2022/01/07 06:15:58;;;;;;;11.32;4.18;;;2.30;87.40;;;;;;4844872;29;20866;-67
2022/01/07 06:18:24;;;;;;;6.75;3.53;;;2.20;88.10;;;;;;4845859;29;20037;-67
2022/01/07 06:20:50;;;;;;;7.72;3.47;;;2.20;88.60;;;;;;4847807;29;20026;-67
2022/01/07 06:23:16;;;;;;;10.45;3.70;;;2.20;88.70;;;;;;4850108;29;20040;-67
2022/01/07 06:25:44;;;;;;;8.18;4.60;;;2.10;88.60;;;;;;4847569;29;20136;-67
2022/01/07 06:28:10;;;;;;;12.80;4.28;;;2.20;89.00;;;;;;4851553;29;20040;-67
2022/01/07 06:30:36;;;;;;;9.63;4.32;;;2.20;88.70;;;;;;4846728;29;20042;-67
2022/01/07 06:33:02;;;;;;;12.68;4.00;;;2.20;88.80;;;;;;4849170;29;20113;-67
2022/01/07 06:35:28;;;;;;;10.45;3.33;;;2.20;87.90;;;;;;4872080;29;20455;-67
2022/01/07 06:37:54;;;;;;;11.02;3.08;;;2.20;88.50;;;;;;4847939;29;20057;-67
2022/01/07 06:40:19;;;;;;;10.18;4.32;;;2.20;88.50;;;;;;4850021;29;20077;-68
2022/01/07 06:42:45;;;;;;;9.35;3.72;;;2.10;88.80;;;;;;4849193;29;20070;-67
2022/01/07 06:45:11;;;;;;;5.53;2.88;;;2.10;89.10;;;;;;4855706;29;20582;-67
2022/01/07 06:47:38;;;;;;;13.23;4.03;;;2.00;88.90;;;;;;4848634;29;20044;-67
2022/01/07 06:50:05;;;;;;;9.32;3.90;;;2.00;89.10;;;;;;4848535;29;20145;-67
2022/01/07 06:52:31;;;;;;;9.50;3.50;;;2.10;89.20;;;;;;4849491;29;20093;-67
2022/01/07 06:54:57;;;;;;;9.90;4.28;;;2.10;89.40;;;;;;4848470;29;20736;-67
2022/01/07 06:57:22;;;;;;;9.23;3.95;;;2.10;89.10;;;;;;4852644;29;20362;-67
2022/01/07 06:59:48;;;;;;;7.90;3.50;;;2.00;88.90;;;;;;4849683;29;20119;-67
2022/01/07 07:02:14;;;;;;;13.63;3.60;;;2.00;89.50;;;;;;4848194;29;20029;-67
2022/01/07 07:04:40;;;;;;;9.93;3.67;;;2.00;89.20;;;;;;4849804;29;20037;-67
2022/01/07 07:07:06;;;;;;;12.05;3.78;;;2.00;89.20;;;;;;4866608;29;20938;-67
2022/01/07 07:09:32;;;;;;;9.85;3.60;;;2.10;89.60;;;;;;4850303;29;20049;-67
2022/01/07 07:11:57;;;;;;;12.32;3.78;;;2.10;88.80;;;;;;4834703;29;20037;-67
2022/01/07 07:14:23;;;;;;;12.18;3.80;;;2.00;89.40;;;;;;4844503;29;20710;-67
2022/01/07 07:16:49;;;;;;;10.35;2.97;;;2.10;89.20;;;;;;4849788;29;20026;-67
2022/01/07 07:19:14;;;;;;;8.63;2.92;;;2.10;88.50;;;;;;4847487;29;20443;-67
2022/01/07 07:21:41;;;;;;;6.28;3.08;;;2.20;88.40;;;;;;4853524;29;20037;-66
2022/01/07 07:24:06;;;;;;;10.40;3.95;;;2.20;88.40;;;;;;4848799;29;20049;-67
2022/01/07 07:26:32;;;;;;;7.85;2.95;;;2.20;87.70;;;;;;4844978;29;20037;-67
2022/01/07 07:28:58;;;;;;;9.27;3.55;;;2.10;87.90;;;;;;4849458;29;20140;-66
2022/01/07 07:31:24;;;;;;;5.53;3.10;;;2.10;88.40;;;;;;4848569;29;20056;-67
2022/01/07 07:36:27;;;;;;;11.40;3.90;;;2.10;88.20;;;;;;4848248;29;20041;-65
2022/01/07 07:39:14;;;;;;;7.78;3.13;;;2.00;88.40;;;;;;4860380;29;20508;-67
2022/01/07 07:41:42;;;;;;;9.98;3.53;;;2.00;88.90;;;;;;4852637;29;20033;-67
2022/01/07 07:44:08;;;;;;;9.60;3.67;;;2.00;88.10;;;;;;4848150;29;20034;-68
2022/01/07 07:46:36;;;;;;;8.57;3.00;;;2.10;88.70;;;;;;4852046;29;20113;-67
2022/01/07 07:49:04;;;;;;;5.65;2.83;;;2.10;88.40;;;;;;4856273;29;20037;-65
2022/01/07 07:51:30;;;;;;;9.85;3.67;;;2.10;88.30;;;;;;4850603;29;20038;-66
2022/01/07 07:53:56;;;;;;;8.20;3.08;;;2.10;88.60;;;;;;4846457;29;20050;-66
2022/01/07 07:56:22;;;;;;;7.60;3.38;;;2.10;88.80;;;;;;4850515;29;20037;-67
2022/01/07 07:58:49;;;;;;;13.48;3.72;;;2.00;88.80;;;;;;4847285;29;20037;-65
2022/01/07 08:01:17;;;;;;;9.80;3.22;;;2.00;88.90;;;;;;4850518;29;20096;-66
2022/01/07 08:03:44;;;;;;;9.95;3.33;;;2.00;89.60;;;;;;4853433;29;20035;-67
2022/01/07 08:06:09;;;;;;;9.02;2.95;;;2.00;89.80;;;;;;4850130;29;20041;-66
2022/01/07 08:08:36;;;;;;;10.73;3.28;;;2.20;89.20;;;;;;4847143;29;20125;-66
2022/01/07 08:11:05;;;;;;;9.25;3.13;;;2.20;88.80;;;;;;4848901;29;20049;-66
2022/01/07 08:15:58;;;;;;;6.60;3.05;;;2.20;88.50;;;;;;4846504;29;20057;-66
2022/01/07 08:16:19;;;;;;;8.85;3.80;;;2.10;89.20;;;;;;4845953;29;20044;-66
2022/01/07 08:18:48;;;;;;;10.18;2.92;;;2.20;89.10;;;;;;4844732;29;20483;-66
2022/01/07 08:21:15;;;;;;;9.77;3.17;;;2.20;88.90;;;;;;4846666;29;20576;-67
2022/01/07 08:23:41;;;;;;;6.78;2.72;;;2.20;89.20;;;;;;4845657;29;20033;-66
2022/01/07 08:26:09;;;;;;;8.88;3.40;;;2.30;88.80;;;;;;4845660;29;20041;-66
2022/01/07 08:28:41;;;;;;;9.30;3.17;;;2.30;88.70;;;;;;4849321;29;20116;-66
2022/01/07 08:36:19;;;;;;;6.93;3.33;;;2.30;88.40;;;;;;4848957;29;20443;-66
2022/01/07 08:38:47;;;;;;;6.50;2.80;;;2.40;88.30;;;;;;4845902;29;20041;-66
2022/01/07 08:41:13;;;;;;;10.75;3.50;;;2.40;88.60;;;;;;4847260;29;20038;-66
2022/01/07 08:43:39;;;;;;;7.70;2.95;;;2.50;88.00;;;;;;4845752;29;20033;-66
2022/01/07 08:46:06;;;;;;;13.02;3.65;;;2.60;87.90;;;;;;4846340;29;20072;-66
2022/01/07 08:48:33;;;;;;;8.77;3.60;;;2.70;87.60;;;;;;4846118;29;20052;-65
2022/01/07 08:50:58;;;;;;;7.57;2.97;;;2.70;87.50;;;;;;4846062;29;20068;-67
2022/01/07 08:53:24;;;;;;;6.75;3.33;;;2.80;87.40;;;;;;4847942;29;20938;-65
2022/01/07 08:55:50;;;;;;;10.63;3.50;;;2.80;87.80;;;;;;4849221;29;20030;-67
2022/01/07 08:58:16;;;;;;;10.30;3.10;;;2.80;87.50;;;;;;4849745;29;20040;-67
2022/01/07 09:00:42;;;;;;;9.05;3.08;;;2.90;87.10;;;;;;4851462;29;20517;-68
2022/01/07 09:03:08;;;;;;;13.75;3.97;;;2.90;87.00;;;;;;4850158;29;20041;-67
2022/01/07 09:05:35;;;;;;;9.85;3.30;;;2.90;87.60;;;;;;4846679;29;20148;-68
2022/01/07 09:08:00;;;;;;;13.52;4.53;;;3.00;87.60;;;;;;4847281;29;20110;-66
2022/01/07 09:10:27;;;;;;;12.48;3.63;;;3.10;87.40;;;;;;4844240;29;20045;-65
2022/01/07 09:12:53;;;;;;;7.75;3.65;;;3.00;87.30;;;;;;4849193;29;20041;-65
2022/01/07 09:15:19;;;;;;;10.90;3.47;;;3.10;87.80;;;;;;4846253;29;20045;-68
2022/01/07 09:17:45;;;;;;;11.45;3.65;;;3.10;87.70;;;;;;4846134;29;20034;-67
2022/01/07 09:20:12;;;;;;;8.77;3.25;;;3.10;87.30;;;;;;4865737;29;20461;-68
2022/01/07 09:22:38;;;;;;;14.05;3.80;;;3.10;86.90;;;;;;4854041;29;20116;-66
2022/01/07 09:25:05;;;;;;;7.88;3.70;;;3.20;87.60;;;;;;4859680;29;20041;-68
2022/01/07 09:27:33;;;;;;;10.15;3.28;;;3.20;87.20;;;;;;4844588;29;20533;-66
2022/01/07 09:29:59;;;;;;;9.57;3.35;;;3.40;86.80;;;;;;4843325;29;20140;-67
2022/01/07 09:32:25;;;;;;;7.72;3.25;;;3.50;85.90;;;;;;4845758;29;20164;-67
2022/01/07 09:34:51;;;;;;;12.35;3.28;;;3.70;85.40;;;;;;4845813;29;20140;-70
2022/01/07 09:37:17;;;;;;;8.52;3.70;;;3.90;84.50;;;;;;4848865;29;20041;-69
2022/01/07 09:39:43;;;;;;;7.18;3.63;;;4.30;82.40;;;;;;4855275;29;20800;-67
2022/01/07 09:42:09;;;;;;;13.88;3.17;;;4.50;81.50;;;;;;4850774;29;20076;-70
2022/01/07 09:44:42;;;;;;;44.97;17.83;;;4.50;80.60;;;;;;4849040;29;20048;-71
2022/01/07 09:47:11;;;;;;;7.75;3.72;;;4.50;81.00;;;;;;4844309;29;20037;-70
2022/01/07 09:49:39;;;;;;;10.25;3.78;;;4.40;81.20;;;;;;4852045;29;20110;-76
2022/01/07 09:52:06;;;;;;;11.40;3.50;;;4.70;81.10;;;;;;4846843;29;20041;-71
2022/01/07 09:54:37;;;;;;;6.80;3.17;;;5.20;79.50;;;;;;4848050;29;20037;-69
2022/01/07 09:57:06;;;;;;;12.93;4.00;;;5.60;76.10;;;;;;4849790;29;20491;-70
2022/01/07 09:59:33;;;;;;;8.07;3.95;;;5.60;75.50;;;;;;4845758;29;20033;-63
2022/01/07 10:02:04;;;;;;;8.60;3.67;;;5.30;76.60;;;;;;4850018;29;20120;-68
2022/01/07 10:04:34;;;;;;;9.57;3.58;;;4.80;78.40;;;;;;4846001;29;20494;-68
2022/01/07 10:07:23;;;;;;;11.70;4.15;;;4.70;79.40;;;;;;4850156;29;20033;-69
2022/01/07 10:10:09;;;;;;;7.68;4.13;;;4.60;79.40;;;;;;4850194;29;20479;-69
2022/01/07 10:12:52;;;;;;;8.52;3.75;;;4.70;79.40;;;;;;4854576;29;20038;-70
2022/01/07 10:15:28;;;;;;;8.32;3.75;;;4.80;79.00;;;;;;4862020;29;20084;-70
2022/01/07 10:18:07;;;;;;;8.27;3.95;;;4.70;79.20;;;;;;4848194;29;20048;-70
2022/01/07 10:20:38;;;;;;;9.15;3.53;;;4.60;79.70;;;;;;4852249;29;20074;-69
2022/01/07 10:23:28;;;;;;;11.23;4.35;;;4.60;80.30;;;;;;4851773;29;20028;-69
2022/01/07 10:25:56;;;;;;;12.13;3.67;;;4.60;80.50;;;;;;4857101;29;20102;-71
2022/01/07 10:28:31;;;;;;;11.10;4.47;;;4.50;80.00;;;;;;4852055;29;20045;-71
2022/01/07 10:31:02;;;;;;;9.60;4.22;;;4.30;80.60;;;;;;4852929;29;20056;-71
2022/01/07 10:33:35;;;;;;;19.20;9.40;;;4.20;81.50;;;;;;4849107;29;20112;-70
2022/01/07 10:36:06;;;;;;;25.25;11.80;;;4.20;81.70;;;;;;4866162;29;20046;-70
2022/01/07 10:38:34;;;;;;;7.63;3.90;;;4.30;81.50;;;;;;4850159;29;20045;-71
2022/01/07 10:41:01;;;;;;;10.40;4.35;;;4.30;80.50;;;;;;4854998;29;20049;-70
2022/01/07 10:43:36;;;;;;;9.63;4.63;;;4.30;81.30;;;;;;4849689;29;20045;-69
2022/01/07 10:46:11;;;;;;;9.55;3.50;;;4.30;81.50;;;;;;4849402;29;20075;-71
2022/01/07 10:48:46;;;;;;;9.63;3.55;;;4.30;81.60;;;;;;4848216;29;20045;-70
2022/01/07 10:51:18;;;;;;;49.85;17.60;;;4.30;80.80;;;;;;4853166;29;20041;-70
2022/01/07 10:54:05;;;;;;;14.40;6.43;;;4.40;81.60;;;;;;4848538;29;20645;-70
2022/01/07 10:56:43;;;;;;;16.98;4.38;;;4.30;81.20;;;;;;4854250;29;20131;-69
2022/01/07 10:59:10;;;;;;;23.30;7.63;;;4.10;82.70;;;;;;4847311;29;20116;-70
2022/01/07 11:01:38;;;;;;;53.03;18.50;;;4.10;83.50;;;;;;4849564;29;20037;-70
2022/01/07 11:04:07;;;;;;;24.30;9.82;;;4.10;83.40;;;;;;4848028;29;20128;-71
2022/01/07 11:06:35;;;;;;;30.77;12.30;;;4.20;83.30;;;;;;4849840;29;20426;-70
2022/01/07 11:09:03;;;;;;;18.02;5.53;;;4.20;83.60;;;;;;4853095;29;20144;-72
2022/01/07 11:11:30;;;;;;;21.77;9.73;;;4.20;83.40;;;;;;4850910;29;20037;-71
2022/01/07 11:14:07;;;;;;;15.00;4.60;;;4.30;83.80;;;;;;4848773;29;20049;-68
2022/01/07 11:16:35;;;;;;;24.13;8.32;;;4.20;83.80;;;;;;4849038;29;20037;-68
2022/01/07 11:19:01;;;;;;;15.20;5.38;;;4.20;85.20;;;;;;4849481;29;20037;-67
2022/01/07 11:21:27;;;;;;;32.42;10.00;;;4.20;84.70;;;;;;4852295;29;20041;-69
2022/01/07 11:23:53;;;;;;;21.70;5.90;;;4.20;84.90;;;;;;4850554;29;20030;-69
2022/01/07 11:26:18;;;;;;;21.40;6.82;;;4.10;85.20;;;;;;4849969;29;20041;-69
2022/01/07 11:29:03;;;;;;;28.98;8.43;;;4.20;84.90;;;;;;4852560;29;20037;-68
2022/01/07 11:31:30;;;;;;;11.65;4.30;;;4.20;84.90;;;;;;4851485;29;20180;-69
2022/01/07 11:34:22;;;;;;;8.60;3.33;;;4.30;85.30;;;;;;4848905;29;20047;-69
2022/01/07 11:36:48;;;;;;;30.05;8.82;;;4.30;84.70;;;;;;4848384;29;20113;-69
2022/01/07 11:39:14;;;;;;;14.25;4.03;;;4.20;85.10;;;;;;4849429;29;20052;-69
2022/01/07 11:41:44;;;;;;;28.45;7.68;;;4.20;86.10;;;;;;4850885;29;20416;-69
2022/01/07 11:44:13;;;;;;;21.02;5.47;;;4.20;86.70;;;;;;4853547;29;20086;-70
2022/01/07 11:46:39;;;;;;;11.52;3.65;;;4.40;86.90;;;;;;4854707;29;20045;-72
2022/01/07 11:49:05;;;;;;;10.65;4.03;;;4.40;86.10;;;;;;4851439;29;21182;-70
2022/01/07 11:51:41;;;;;;;14.15;4.68;;;4.30;86.20;;;;;;4849826;29;20038;-70
2022/01/07 11:54:09;;;;;;;12.98;4.78;;;4.30;86.90;;;;;;4846168;29;20041;-71
2022/01/07 11:56:37;;;;;;;9.95;3.72;;;4.30;86.90;;;;;;4848626;29;20068;-71
2022/01/07 11:59:19;;;;;;;9.43;3.60;;;4.30;87.40;;;;;;4865964;29;20090;-68
2022/01/07 12:01:56;;;;;;;15.82;4.80;;;4.30;87.90;;;;;;4848954;29;20057;-67
2022/01/07 12:04:29;;;;;;;8.15;4.35;;;4.40;88.10;;;;;;4848251;29;20398;-69
2022/01/07 12:07:05;;;;;;;11.55;3.75;;;4.40;87.70;;;;;;4850141;29;20053;-69
2022/01/07 12:09:36;;;;;;;6.07;3.47;;;4.30;88.30;;;;;;4848878;29;20045;-69
2022/01/07 12:12:15;;;;;;;10.93;4.15;;;4.20;88.50;;;;;;4846982;29;20045;-70
2022/01/07 12:14:44;;;;;;;16.23;4.90;;;4.20;89.20;;;;;;4847947;29;20044;-72
2022/01/07 12:17:18;;;;;;;9.68;4.13;;;4.20;89.30;;;;;;4848182;29;20112;-70
2022/01/07 12:19:50;;;;;;;11.45;4.80;;;4.20;89.50;;;;;;4851171;29;20108;-69
2022/01/07 12:22:16;;;;;;;11.43;4.80;;;4.20;90.00;;;;;;4849564;29;20813;-70
2022/01/07 12:24:44;;;;;;;10.65;4.20;;;4.30;89.90;;;;;;4845864;29;20125;-69
2022/01/07 12:27:20;;;;;;;13.10;4.88;;;4.30;90.10;;;;;;4843989;29;20037;-68
2022/01/07 12:29:49;;;;;;;12.57;4.57;;;4.40;90.30;;;;;;4861369;29;20061;-68
2022/01/07 12:32:16;;;;;;;7.68;3.70;;;4.30;90.60;;;;;;4848630;29;20048;-68
2022/01/07 12:34:45;;;;;;;9.18;4.10;;;4.10;90.70;;;;;;4845679;29;20482;-71
2022/01/07 12:37:19;;;;;;;10.55;4.35;;;3.90;91.20;;;;;;4862436;29;20960;-68
2022/01/07 12:39:48;;;;;;;10.35;4.22;;;4.00;91.60;;;;;;4851380;29;20086;-69
2022/01/07 12:42:14;;;;;;;10.00;5.00;;;4.10;91.60;;;;;;4846181;29;20029;-69
2022/01/07 12:44:51;;;;;;;11.18;4.35;;;4.10;91.40;;;;;;4846540;29;20030;-69
2022/01/07 12:47:19;;;;;;;16.55;5.35;;;4.00;91.30;;;;;;4845193;29;20152;-69
2022/01/07 12:49:47;;;;;;;8.43;4.45;;;4.00;91.60;;;;;;4851125;29;20501;-68
2022/01/07 12:52:27;;;;;;;14.48;4.75;;;4.00;91.70;;;;;;4849003;29;20065;-70
2022/01/07 12:54:54;;;;;;;9.45;3.88;;;4.00;91.90;;;;;;4849315;29;20046;-69
2022/01/07 12:57:46;;;;;;;10.75;4.72;;;4.10;91.60;;;;;;4849039;29;20025;-69
2022/01/07 13:00:17;;;;;;;8.77;4.57;;;4.10;91.70;;;;;;4845094;29;20040;-68
2022/01/07 13:02:48;;;;;;;10.90;4.55;;;4.10;91.30;;;;;;4849573;29;20037;-68